Time;durP1;ratioP1;P1;durP2;ratioP2;P2;SDS_P1;SDS_P2;PMS_P1;PMS_P2;Temp;Humidity;BMP_temperature;BMP_pressure;BME280_temperature;BME280_humidity;BME280_pressure;Samples;Min_cycle;Max_cycle;Signal;HPM_P1;HPM_P2
2023/07/04 00:02:03;;;;;;;10.98;4.70;;;;;;;16.73;73.05;100432.09;4975998;28;20055;-76
2023/07/04 00:04:31;;;;;;;13.73;4.95;;;;;;;16.71;73.20;100428.84;4976259;28;20130;-77
2023/07/04 00:07:00;;;;;;;12.63;4.82;;;;;;;16.71;73.15;100419.09;4974612;28;20050;-76
2023/07/04 00:09:26;;;;;;;11.18;4.90;;;;;;;16.71;73.32;100415.63;4974390;28;20054;-76
2023/07/04 00:11:53;;;;;;;9.82;4.40;;;;;;;16.76;73.32;100421.13;4973969;28;20137;-76
2023/07/04 00:14:20;;;;;;;14.25;4.43;;;;;;;16.71;73.62;100424.38;4974275;28;20053;-76
2023/07/04 00:16:46;;;;;;;11.27;5.07;;;;;;;16.64;73.88;100423.53;4968274;28;20061;-76
2023/07/04 00:19:14;;;;;;;11.27;5.22;;;;;;;16.64;74.15;100428.81;4974008;28;20133;-77
2023/07/04 00:21:41;;;;;;;16.30;4.57;;;;;;;16.69;73.84;100425.59;4974138;28;20407;-77
2023/07/04 00:24:10;;;;;;;12.43;4.72;;;;;;;16.65;74.18;100430.44;4973396;28;20047;-76
2023/07/04 00:26:37;;;;;;;11.50;4.65;;;;;;;16.60;74.64;100422.28;4973764;28;20111;-76
2023/07/04 00:29:04;;;;;;;12.05;5.25;;;;;;;16.56;74.80;100419.22;4973648;28;20109;-77
2023/07/04 00:31:32;;;;;;;13.10;4.40;;;;;;;16.54;74.92;100434.44;4971546;28;20078;-77
2023/07/04 00:33:58;;;;;;;10.43;4.68;;;;;;;16.56;75.13;100445.63;4973696;28;20471;-77
2023/07/04 00:36:25;;;;;;;11.18;4.82;;;;;;;16.54;75.41;100444.25;4973992;28;20046;-77
2023/07/04 00:38:56;;;;;;;16.95;4.72;;;;;;;16.50;75.72;100445.66;4973062;28;20138;-77
2023/07/04 00:41:26;;;;;;;11.63;5.43;;;;;;;16.41;76.03;100444.19;4968736;28;20047;-76
2023/07/04 00:44:00;;;;;;;11.65;4.50;;;;;;;16.33;76.60;100442.53;4973794;28;20043;-76
2023/07/04 00:46:38;;;;;;;10.65;4.43;;;;;;;16.25;76.65;100446.16;4969140;28;20150;-77
2023/07/04 00:49:22;;;;;;;16.38;4.55;;;;;;;16.16;77.04;100451.81;4971204;28;20051;-77
2023/07/04 00:51:57;;;;;;;13.82;4.80;;;;;;;16.08;77.57;100450.13;4974289;28;20085;-77
2023/07/04 00:54:25;;;;;;;12.88;4.82;;;;;;;16.03;77.87;100455.22;4968821;28;20043;-77
2023/07/04 00:56:57;;;;;;;13.10;4.40;;;;;;;15.93;78.23;100452.13;4973511;28;20137;-77
2023/07/04 00:59:25;;;;;;;14.05;4.70;;;;;;;15.87;78.37;100453.72;4973507;28;20069;-77
2023/07/04 01:01:52;;;;;;;16.23;5.28;;;;;;;15.93;78.18;100458.22;4968305;28;20106;-77
2023/07/04 01:04:18;;;;;;;12.75;4.80;;;;;;;15.86;78.50;100451.25;4973604;28;20133;-76
2023/07/04 01:06:50;;;;;;;9.88;4.88;;;;;;;15.80;79.05;100454.66;4973686;28;20105;-77
2023/07/04 01:09:19;;;;;;;16.50;5.88;;;;;;;15.73;79.23;100448.53;4972962;28;20434;-76
2023/07/04 01:11:48;;;;;;;13.63;5.63;;;;;;;15.69;79.47;100460.47;4973581;28;20050;-75
2023/07/04 01:14:24;;;;;;;10.55;5.20;;;;;;;15.65;79.76;100448.69;4968492;28;20058;-76
2023/07/04 01:16:51;;;;;;;12.40;5.53;;;;;;;15.58;79.99;100452.13;4973863;28;20137;-76
2023/07/04 01:19:28;;;;;;;12.65;4.95;;;;;;;15.54;80.31;100464.03;4973613;28;20442;-76
2023/07/04 01:22:09;;;;;;;16.95;5.28;;;;;;;15.54;80.36;100450.03;4973555;28;20061;-77
2023/07/04 01:24:45;;;;;;;19.13;5.60;;;;;;;15.50;80.59;100452.22;4971159;28;20055;-77
2023/07/04 01:27:15;;;;;;;13.57;5.88;;;;;;;15.44;80.79;100442.44;4974211;28;20078;-77
2023/07/04 01:29:42;;;;;;;11.95;4.95;;;;;;;15.41;81.13;100448.09;4977264;28;20055;-78
2023/07/04 01:32:12;;;;;;;11.45;5.07;;;;;;;15.35;81.24;100442.78;4972800;28;20109;-77
2023/07/04 01:34:39;;;;;;;13.40;5.30;;;;;;;15.33;81.50;100450.88;4973571;28;20130;-76
2023/07/04 01:37:06;;;;;;;12.07;5.40;;;;;;;15.30;81.87;100443.34;4972899;28;20054;-77
2023/07/04 01:39:33;;;;;;;12.15;5.72;;;;;;;15.30;81.90;100450.44;4972586;28;20130;-76
2023/07/04 01:42:00;;;;;;;13.88;4.90;;;;;;;15.23;82.33;100447.75;4972737;28;20059;-77
2023/07/04 01:44:28;;;;;;;14.35;5.00;;;;;;;15.17;82.81;100454.59;4968871;28;20046;-77
2023/07/04 01:46:55;;;;;;;10.88;4.38;;;;;;;15.12;82.84;100462.25;4972940;28;20113;-76
2023/07/04 01:49:21;;;;;;;12.73;4.80;;;;;;;15.13;82.94;100460.44;4972549;28;20102;-76
2023/07/04 01:51:48;;;;;;;14.95;4.88;;;;;;;15.05;83.31;100450.06;4973569;28;20133;-77
2023/07/04 01:54:18;;;;;;;15.30;5.10;;;;;;;15.06;83.46;100459.59;4977450;28;20134;-76
2023/07/04 01:56:48;;;;;;;10.15;4.75;;;;;;;15.01;83.94;100454.06;4973420;28;20094;-77
2023/07/04 01:59:15;;;;;;;14.82;4.93;;;;;;;15.03;83.94;100449.44;4972225;28;20411;-77
2023/07/04 02:01:43;;;;;;;24.75;5.93;;;;;;;15.00;84.16;100449.81;4972354;28;20552;-76
2023/07/04 02:04:10;;;;;;;17.90;5.18;;;;;;;14.93;84.46;100453.19;4973143;28;20082;-76
2023/07/04 02:06:36;;;;;;;11.88;4.80;;;;;;;14.94;84.54;100452.19;4972557;28;20262;-77
2023/07/04 02:09:03;;;;;;;16.17;5.53;;;;;;;14.98;84.55;100459.72;4972342;28;20051;-76
2023/07/04 02:11:30;;;;;;;11.45;5.45;;;;;;;14.92;84.91;100456.81;4971914;28;20487;-78
2023/07/04 02:13:57;;;;;;;19.17;5.13;;;;;;;14.89;84.96;100459.84;4972655;28;20129;-77
2023/07/04 02:16:23;;;;;;;14.23;5.60;;;;;;;14.93;85.06;100466.34;4972872;28;20166;-77
2023/07/04 02:18:52;;;;;;;13.25;5.53;;;;;;;14.85;85.42;100463.03;4972943;28;20485;-77
2023/07/04 02:21:19;;;;;;;14.90;5.43;;;;;;;14.79;85.72;100456.69;4973402;28;20065;-78
2023/07/04 02:23:46;;;;;;;15.30;5.63;;;;;;;14.75;86.22;100465.97;4973126;28;20502;-78
2023/07/04 02:26:13;;;;;;;21.92;5.63;;;;;;;14.71;86.51;100467.34;4972623;28;20086;-78
2023/07/04 02:28:39;;;;;;;11.68;5.15;;;;;;;14.75;86.52;100473.88;4972337;28;20407;-78
2023/07/04 02:31:06;;;;;;;16.40;5.10;;;;;;;14.71;86.96;100483.13;4972909;28;20576;-77
2023/07/04 02:33:34;;;;;;;10.35;5.07;;;;;;;14.66;86.95;100464.44;4973463;28;20054;-78
2023/07/04 02:36:02;;;;;;;20.63;5.97;;;;;;;14.69;87.32;100484.31;4973434;28;20085;-78
2023/07/04 02:38:28;;;;;;;17.60;5.68;;;;;;;14.66;87.48;100477.63;4973292;28;20129;-77
2023/07/04 02:40:55;;;;;;;11.95;4.95;;;;;;;14.61;87.66;100480.00;4974467;28;20050;-77
2023/07/04 02:43:21;;;;;;;15.60;5.50;;;;;;;14.64;87.82;100487.53;4972722;28;20141;-77
2023/07/04 02:45:48;;;;;;;19.60;5.70;;;;;;;14.62;88.02;100484.28;4972598;28;20583;-77
2023/07/04 02:48:16;;;;;;;15.50;5.50;;;;;;;14.55;88.33;100478.94;4972152;28;20057;-77
2023/07/04 02:50:42;;;;;;;13.05;5.88;;;;;;;14.59;88.44;100487.28;4972121;28;20065;-77
2023/07/04 02:53:10;;;;;;;17.17;5.68;;;;;;;14.57;88.59;100491.91;4973220;28;20130;-75
2023/07/04 02:55:37;;;;;;;14.57;5.43;;;;;;;14.52;88.98;100486.38;4972126;28;20055;-77
2023/07/04 02:58:03;;;;;;;14.98;5.95;;;;;;;14.48;88.98;100485.13;4971660;28;20057;-76
2023/07/04 03:00:30;;;;;;;16.45;5.38;;;;;;;14.46;89.26;100493.22;4972252;28;20050;-77
2023/07/04 03:02:57;;;;;;;13.82;4.97;;;;;;;14.34;89.83;100491.19;4972103;28;20486;-76
2023/07/04 03:05:24;;;;;;;16.02;5.15;;;;;;;14.29;90.33;100489.91;4972330;28;20137;-76
2023/07/04 03:07:51;;;;;;;13.73;5.07;;;;;;;14.25;90.63;100499.19;4971938;28;20053;-76
2023/07/04 03:10:19;;;;;;;18.60;5.50;;;;;;;14.22;91.07;100499.53;4972187;28;20482;-76
2023/07/04 03:12:45;;;;;;;17.02;5.60;;;;;;;14.32;90.81;100488.75;4972084;28;20047;-76
2023/07/04 03:15:12;;;;;;;12.60;5.10;;;;;;;14.29;90.82;100499.63;4972227;28;20058;-76
2023/07/04 03:17:39;;;;;;;17.55;5.07;;;;;;;14.27;91.03;100496.38;4971405;28;20134;-76
2023/07/04 03:20:09;;;;;;;17.55;5.80;;;;;;;14.19;91.38;100489.38;4971630;28;20480;-76
2023/07/04 03:22:36;;;;;;;20.35;5.93;;;;;;;14.27;91.37;100491.91;4972760;28;20051;-76
2023/07/04 03:25:04;;;;;;;18.60;5.50;;;;;;;14.24;91.45;100496.72;4975390;28;20602;-76
2023/07/04 03:27:32;;;;;;;24.77;5.70;;;;;;;14.25;91.91;100506.25;4975082;28;20544;-76
2023/07/04 03:29:58;;;;;;;21.05;5.80;;;;;;;14.24;91.86;100502.00;4974896;28;20137;-76
2023/07/04 03:32:25;;;;;;;13.75;5.55;;;;;;;14.23;91.89;100511.69;4975103;28;20424;-76
2023/07/04 03:34:51;;;;;;;17.70;5.93;;;;;;;14.24;92.03;100510.72;4975237;28;20064;-76
2023/07/04 03:37:18;;;;;;;14.05;5.60;;;;;;;14.27;92.11;100512.16;4975253;28;20065;-77
2023/07/04 03:39:45;;;;;;;19.40;6.85;;;;;;;14.26;92.10;100508.72;4974610;28;20124;-76
2023/07/04 03:42:11;;;;;;;17.52;5.55;;;;;;;14.25;92.03;100514.97;4975595;28;20138;-77
2023/07/04 03:44:39;;;;;;;16.75;5.50;;;;;;;14.25;92.24;100509.72;4975295;28;20047;-77
2023/07/04 03:47:06;;;;;;;17.48;5.75;;;;;;;14.32;92.02;100509.78;4976066;28;20141;-77
2023/07/04 03:49:32;;;;;;;18.45;5.40;;;;;;;14.28;91.95;100498.81;4975487;28;20141;-76
2023/07/04 03:52:00;;;;;;;10.63;4.88;;;;;;;14.29;92.36;100500.44;4975200;28;20489;-77
2023/07/04 03:54:26;;;;;;;11.95;5.30;;;;;;;14.33;92.33;100508.78;4975051;28;20050;-77
2023/07/04 03:56:53;;;;;;;14.60;4.93;;;;;;;14.35;92.00;100519.16;4974825;28;20057;-77
2023/07/04 03:59:19;;;;;;;23.38;6.85;;;;;;;14.40;91.98;100522.03;4974583;28;20146;-77
2023/07/04 04:01:47;;;;;;;20.02;5.53;;;;;;;14.48;91.77;100517.53;4974712;28;20061;-77
2023/07/04 04:04:14;;;;;;;13.77;5.68;;;;;;;14.53;91.75;100509.91;4975967;28;20043;-78
2023/07/04 04:06:41;;;;;;;13.80;5.40;;;;;;;14.59;91.67;100510.97;4970822;28;20462;-77
2023/07/04 04:09:07;;;;;;;16.90;5.35;;;;;;;14.71;91.15;100514.75;4975912;28;20074;-75
2023/07/04 04:11:34;;;;;;;13.55;5.43;;;;;;;14.94;90.72;100518.06;4973264;28;20046;-75
2023/07/04 04:14:01;;;;;;;18.98;5.45;;;;;;;15.11;89.13;100505.44;4973803;28;20055;-75
2023/07/04 04:16:27;;;;;;;18.60;5.80;;;;;;;15.26;88.35;100515.91;4972725;28;20133;-76
2023/07/04 04:18:55;;;;;;;13.20;5.60;;;;;;;15.39;87.61;100516.03;4972131;28;20130;-76
2023/07/04 04:21:22;;;;;;;15.70;5.25;;;;;;;15.34;87.22;100510.50;4973240;28;20078;-76
2023/07/04 04:23:51;;;;;;;12.57;5.63;;;;;;;15.48;87.07;100514.91;4973103;28;20479;-76
2023/07/04 04:26:19;;;;;;;15.55;6.60;;;;;;;15.58;86.49;100507.50;4969303;28;20065;-75
2023/07/04 04:28:46;;;;;;;19.33;5.60;;;;;;;15.86;85.49;100517.22;4972943;28;20109;-75
2023/07/04 04:31:14;;;;;;;15.52;5.70;;;;;;;16.04;84.84;100512.28;4968136;28;20494;-76
2023/07/04 04:33:41;;;;;;;13.02;5.75;;;;;;;16.02;84.39;100514.28;4968798;28;20054;-76
2023/07/04 04:36:09;;;;;;;17.92;5.63;;;;;;;16.04;84.20;100511.47;4971223;28;20043;-76
2023/07/04 04:38:36;;;;;;;19.77;5.90;;;;;;;16.10;84.27;100519.38;4973284;28;20047;-77
2023/07/04 04:41:15;;;;;;;17.50;5.47;;;;;;;16.12;83.90;100524.47;4972327;28;20075;-76
2023/07/04 04:43:42;;;;;;;15.57;5.70;;;;;;;16.16;84.35;100526.53;4962461;28;20130;-76
2023/07/04 04:46:08;;;;;;;18.05;5.68;;;;;;;16.06;84.55;100530.56;4972376;28;20053;-76
2023/07/04 04:48:36;;;;;;;20.05;6.18;;;;;;;16.15;84.60;100543.38;4972088;28;20090;-77
2023/07/04 04:51:07;;;;;;;18.55;6.70;;;;;;;16.53;83.43;100527.13;4972478;28;20522;-76
2023/07/04 04:53:35;;;;;;;19.73;5.68;;;;;;;16.65;82.58;100533.47;4973347;28;20104;-76
2023/07/04 04:56:02;;;;;;;14.65;5.47;;;;;;;16.56;82.65;100522.25;4971284;28;20133;-76
2023/07/04 04:58:28;;;;;;;17.20;5.95;;;;;;;16.43;83.37;100530.13;4973094;28;20138;-76
2023/07/04 05:00:55;;;;;;;21.45;6.82;;;;;;;16.65;82.56;100525.56;4973016;28;20129;-76
2023/07/04 05:03:22;;;;;;;12.38;4.85;;;;;;;17.02;81.72;100540.09;4973114;28;20054;-77
2023/07/04 05:05:48;;;;;;;16.98;5.80;;;;;;;17.27;81.17;100535.06;4974656;28;20086;-77
2023/07/04 05:08:15;;;;;;;13.85;5.82;;;;;;;17.53;80.07;100532.41;4971256;28;20583;-77
2023/07/04 05:10:43;;;;;;;17.20;5.75;;;;;;;17.44;79.83;100531.00;4978109;28;20114;-77
2023/07/04 05:13:09;;;;;;;15.02;6.32;;;;;;;17.61;79.80;100533.22;4975830;28;20419;-78
2023/07/04 05:15:36;;;;;;;15.43;5.57;;;;;;;17.71;79.43;100538.97;4975894;28;20043;-77
2023/07/04 05:18:02;;;;;;;16.35;6.38;;;;;;;17.55;79.12;100533.03;4966806;28;20062;-77
2023/07/04 05:20:29;;;;;;;15.32;5.15;;;;;;;17.80;78.13;100535.09;4980522;28;20137;-78
2023/07/04 05:22:56;;;;;;;11.73;5.30;;;;;;;17.66;78.07;100530.81;4976128;28;20047;-78
2023/07/04 05:25:23;;;;;;;15.20;5.38;;;;;;;17.84;77.50;100523.06;4974640;28;20078;-78
2023/07/04 05:27:52;;;;;;;14.73;5.03;;;;;;;18.40;76.44;100530.47;4974157;28;20054;-78
2023/07/04 05:30:22;;;;;;;17.52;6.03;;;;;;;18.71;75.37;100525.25;4973487;28;20591;-78
2023/07/04 05:32:48;;;;;;;16.73;5.85;;;;;;;19.22;73.72;100524.34;4971919;28;20387;-78
2023/07/04 05:35:15;;;;;;;15.30;5.40;;;;;;;19.36;72.80;100528.53;4971692;28;20129;-78
2023/07/04 05:37:42;;;;;;;12.65;5.25;;;;;;;19.97;71.40;100535.75;4968507;28;20050;-77
2023/07/04 05:40:09;;;;;;;17.20;5.32;;;;;;;20.02;69.95;100529.78;4972695;28;20129;-79
2023/07/04 05:42:36;;;;;;;11.18;5.25;;;;;;;20.32;69.84;100549.25;4973145;28;20138;-79
2023/07/04 05:45:45;;;;;;;18.83;5.50;;;;;;;21.09;68.39;100558.34;4957897;28;20079;-78
2023/07/04 05:48:13;;;;;;;15.38;5.45;;;;;;;21.36;67.00;100542.00;4978732;23;20134;-77
2023/07/04 05:50:50;;;;;;;17.15;6.07;;;;;;;21.16;66.68;100544.94;4957028;28;20526;-81
2023/07/04 05:53:21;;;;;;;11.25;5.72;;;;;;;20.72;67.27;100562.13;4958266;28;20138;-79
2023/07/04 05:55:48;;;;;;;14.88;5.25;;;;;;;20.66;67.94;100560.38;4959442;29;20127;-79
2023/07/04 05:58:17;;;;;;;14.13;5.38;;;;;;;21.09;67.15;100566.31;4956944;29;20135;-80
2023/07/04 06:00:44;;;;;;;13.57;5.35;;;;;;;21.59;65.59;100557.19;4960409;28;20055;-81
2023/07/04 06:03:15;;;;;;;14.48;5.50;;;;;;;21.79;65.32;100555.00;4960262;29;20130;-80
2023/07/04 06:05:42;;;;;;;19.02;7.03;;;;;;;21.51;65.19;100561.00;4960877;28;20058;-80
2023/07/04 06:08:08;;;;;;;22.58;6.05;;;;;;;21.84;65.03;100566.59;4963173;28;20083;-79
2023/07/04 06:10:36;;;;;;;16.02;5.32;;;;;;;21.87;64.60;100544.00;4961656;28;20134;-81
2023/07/04 06:13:03;;;;;;;17.70;5.30;;;;;;;22.15;64.05;100551.31;4953071;29;20043;-79
2023/07/04 06:15:30;;;;;;;16.27;4.97;;;;;;;21.74;64.40;100549.56;4959355;29;20569;-79
2023/07/04 06:17:57;;;;;;;17.00;5.70;;;;;;;22.48;63.67;100566.66;4958936;28;20059;-78
2023/07/04 06:20:25;;;;;;;12.88;5.13;;;;;;;22.73;62.75;100558.34;4958547;28;20051;-79
2023/07/04 06:22:51;;;;;;;16.20;5.55;;;;;;;22.06;63.88;100564.19;4960418;28;20063;-81
2023/07/04 06:25:18;;;;;;;11.23;4.90;;;;;;;21.90;64.96;100564.03;4961049;28;20051;-81
2023/07/04 06:27:45;;;;;;;15.13;5.57;;;;;;;22.04;63.67;100560.94;4960594;28;20074;-81
2023/07/04 06:30:13;;;;;;;16.58;5.22;;;;;;;22.57;62.97;100565.25;4961418;28;20103;-81
2023/07/04 06:32:42;;;;;;;15.60;5.63;;;;;;;22.28;63.01;100560.91;4962563;29;20074;-81
2023/07/04 06:35:10;;;;;;;15.77;5.82;;;;;;;22.25;63.27;100567.50;4962536;29;20062;-80
2023/07/04 06:37:40;;;;;;;14.77;5.32;;;;;;;21.33;65.25;100563.75;4961114;28;20055;-79
2023/07/04 06:40:08;;;;;;;14.32;5.57;;;;;;;21.31;65.65;100568.47;4960430;28;20130;-80
2023/07/04 06:42:34;;;;;;;17.17;5.78;;;;;;;21.31;65.62;100579.94;4958606;28;20059;-81
2023/07/04 06:45:04;;;;;;;11.65;5.40;;;;;;;20.79;66.14;100576.16;4960049;29;20491;-81
2023/07/04 06:47:34;;;;;;;14.68;5.70;;;;;;;19.95;68.48;100572.34;4960530;28;20130;-80
2023/07/04 06:50:00;;;;;;;17.95;5.18;;;;;;;19.67;69.98;100572.00;4958507;28;20066;-81
2023/07/04 06:52:27;;;;;;;14.70;5.32;;;;;;;19.95;69.99;100571.53;4959906;28;20134;-81
2023/07/04 06:54:55;;;;;;;18.75;6.57;;;;;;;20.75;67.74;100570.47;4960064;29;20074;-81
2023/07/04 06:57:23;;;;;;;17.90;5.55;;;;;;;21.11;66.96;100576.72;4961139;28;20118;-80
2023/07/04 06:59:51;;;;;;;12.85;5.32;;;;;;;21.67;64.82;100564.84;4963608;29;20130;-80
2023/07/04 07:02:18;;;;;;;16.95;5.40;;;;;;;21.36;64.67;100568.59;4964650;28;20169;-79
2023/07/04 07:04:44;;;;;;;18.65;5.90;;;;;;;22.43;62.87;100567.38;4962955;29;20039;-79
2023/07/04 07:07:12;;;;;;;15.52;5.38;;;;;;;22.99;61.63;100575.69;4961094;29;20103;-80
2023/07/04 07:09:41;;;;;;;14.60;5.35;;;;;;;22.03;62.73;100547.84;4965715;29;20061;-79
2023/07/04 07:12:11;;;;;;;15.23;5.45;;;;;;;21.92;62.85;100577.94;4968259;29;20051;-80
2023/07/04 07:14:38;;;;;;;13.65;5.47;;;;;;;21.59;63.13;100573.19;4969510;28;20078;-79
2023/07/04 07:17:06;;;;;;;16.27;5.72;;;;;;;21.59;64.77;100575.84;4964815;29;20082;-80
2023/07/04 07:19:34;;;;;;;13.98;5.30;;;;;;;22.14;62.87;100587.81;4966957;29;20089;-79
2023/07/04 07:22:01;;;;;;;19.65;5.43;;;;;;;22.08;63.41;100593.25;4967555;29;20051;-79
2023/07/04 07:24:28;;;;;;;15.95;5.18;;;;;;;21.97;63.05;100578.88;4965972;28;20051;-79
2023/07/04 07:26:55;;;;;;;15.95;5.22;;;;;;;21.71;63.29;100582.00;4961158;29;20598;-79
2023/07/04 07:29:23;;;;;;;16.25;5.32;;;;;;;20.57;65.89;100586.44;4958976;28;20055;-78
2023/07/04 07:31:50;;;;;;;15.25;5.65;;;;;;;20.47;67.50;100596.78;4959631;29;20134;-77
2023/07/04 07:34:18;;;;;;;15.32;6.30;;;;;;;22.05;64.75;100591.06;4959522;29;20051;-77
2023/07/04 07:36:46;;;;;;;18.83;5.57;;;;;;;23.46;60.46;100586.91;4960723;29;20055;-78
2023/07/04 07:39:14;;;;;;;11.68;4.80;;;;;;;23.93;58.10;100592.75;4958444;29;20138;-78
2023/07/04 07:41:43;;;;;;;12.18;4.85;;;;;;;24.34;58.14;100594.16;4960106;29;20074;-79
2023/07/04 07:44:11;;;;;;;14.77;5.30;;;;;;;24.52;57.34;100602.94;4961915;29;20121;-79
2023/07/04 07:46:39;;;;;;;12.57;5.00;;;;;;;23.32;58.78;100598.94;4961857;29;20644;-78
2023/07/04 07:49:05;;;;;;;14.50;4.95;;;;;;;22.94;60.24;100602.25;4960825;29;20086;-78
2023/07/04 07:51:33;;;;;;;17.20;5.25;;;;;;;23.18;59.30;100598.44;4962483;29;20059;-79
2023/07/04 07:54:01;;;;;;;10.68;4.65;;;;;;;22.76;60.23;100605.88;4961992;29;20554;-77
2023/07/04 07:56:32;;;;;;;14.02;4.85;;;;;;;23.16;59.76;100597.84;4961806;29;20082;-79
2023/07/04 07:58:59;;;;;;;14.13;5.00;;;;;;;23.81;58.31;100608.06;4961165;28;20083;-79
2023/07/04 08:01:29;;;;;;;13.57;5.40;;;;;;;22.44;60.30;100597.50;4960835;29;20572;-79
2023/07/04 08:03:57;;;;;;;13.23;4.70;;;;;;;22.28;61.74;100606.22;4964902;29;20055;-79
2023/07/04 08:06:26;;;;;;;13.63;5.28;;;;;;;21.93;61.37;100583.03;4962496;29;20074;-79
2023/07/04 08:08:54;;;;;;;17.77;5.40;;;;;;;21.50;62.36;100594.81;4963532;28;20047;-79
2023/07/04 08:11:21;;;;;;;14.05;4.78;;;;;;;22.24;61.58;100591.72;4959412;29;20081;-79
2023/07/04 08:13:48;;;;;;;12.50;4.68;;;;;;;22.81;60.41;100587.34;4959253;28;20118;-78
2023/07/04 08:16:19;;;;;;;10.13;4.55;;;;;;;23.66;58.40;100586.44;4961265;29;20054;-79
2023/07/04 08:18:45;;;;;;;11.73;4.63;;;;;;;24.33;56.37;100579.16;4961410;29;20086;-78
2023/07/04 08:21:13;;;;;;;13.85;4.75;;;;;;;23.94;55.97;100585.56;4960925;29;20145;-78
2023/07/04 08:23:40;;;;;;;9.73;4.35;;;;;;;23.18;56.49;100561.88;4967411;29;20087;-79
2023/07/04 08:26:07;;;;;;;13.05;4.80;;;;;;;22.95;57.45;100582.53;4972768;29;20054;-78
2023/07/04 08:28:34;;;;;;;10.55;4.60;;;;;;;22.00;59.23;100585.59;4967513;29;20085;-79
2023/07/04 08:31:05;;;;;;;12.77;5.30;;;;;;;21.48;60.42;100577.44;4961550;29;20055;-78
2023/07/04 08:33:32;;;;;;;15.55;5.22;;;;;;;22.40;60.03;100575.81;4961787;29;20078;-79
2023/07/04 08:36:01;;;;;;;14.52;5.15;;;;;;;23.69;58.03;100578.75;4961281;28;20054;-79
2023/07/04 08:38:29;;;;;;;15.38;4.68;;;;;;;23.72;55.82;100572.94;4960410;28;20047;-78
2023/07/04 08:40:56;;;;;;;14.27;4.45;;;;;;;23.71;55.01;100560.63;4961517;28;20082;-79
2023/07/04 08:43:29;;;;;;;11.15;4.97;;;;;;;24.71;55.96;100586.31;4962170;28;20074;-79
2023/07/04 08:45:56;;;;;;;11.63;4.50;;;;;;;25.01;52.81;100574.38;4960867;28;20114;-79
2023/07/04 08:48:26;;;;;;;10.35;4.80;;;;;;;24.98;53.42;100569.50;4959924;28;20054;-79
2023/07/04 08:50:56;;;;;;;10.13;4.15;;;;;;;24.61;52.13;100570.13;4960409;28;20107;-79
2023/07/04 08:53:23;;;;;;;7.50;3.92;;;;;;;24.93;51.69;100572.09;4960851;29;20066;-79
2023/07/04 08:56:00;;;;;;;10.40;4.75;;;;;;;25.04;51.95;100557.81;4960894;28;20047;-80
2023/07/04 08:58:50;;;;;;;8.10;4.05;;;;;;;24.37;51.73;100572.28;4959848;29;20060;-78
2023/07/04 09:01:25;;;;;;;9.35;4.40;;;;;;;24.09;52.31;100569.75;4960065;29;20111;-76
2023/07/04 09:03:57;;;;;;;9.88;4.53;;;;;;;24.06;53.31;100580.91;4959424;28;20087;-79
2023/07/04 09:06:30;;;;;;;7.83;4.10;;;;;;;23.41;54.38;100597.50;4959989;29;20115;-79
2023/07/04 09:09:04;;;;;;;12.52;4.60;;;;;;;24.20;53.34;100592.06;4959739;29;20448;-80
2023/07/04 09:11:33;;;;;;;11.18;4.53;;;;;;;24.58;52.71;100591.22;4960568;29;20400;-80
2023/07/04 09:14:04;;;;;;;11.82;4.55;;;;;;;24.99;51.85;100593.34;4960789;28;20142;-79
2023/07/04 09:16:36;;;;;;;13.73;4.93;;;;;;;24.37;51.62;100576.81;4960754;29;20074;-79
2023/07/04 09:19:05;;;;;;;;;;;;;;;23.88;53.51;100582.00;4960352;28;20461;-79
2023/07/04 09:21:32;;;;;;;11.52;4.80;;;;;;;23.23;54.28;100584.38;4960155;28;19937;-79
2023/07/04 09:24:01;;;;;;;7.65;4.43;;;;;;;22.95;55.05;100587.88;4959891;28;20081;-78
2023/07/04 09:26:32;;;;;;;8.70;4.47;;;;;;;22.74;55.94;100592.78;4959830;28;20051;-78
2023/07/04 09:29:01;;;;;;;11.98;5.00;;;;;;;23.06;56.07;100597.69;4959748;28;20051;-79
2023/07/04 09:31:30;;;;;;;8.95;4.35;;;;;;;23.33;56.04;100601.38;4959484;29;20055;-78
2023/07/04 09:33:58;;;;;;;10.95;4.75;;;;;;;23.89;54.24;100602.31;4960397;29;20063;-80
2023/07/04 09:36:30;;;;;;;9.75;4.85;;;;;;;23.73;54.17;100592.44;4960921;29;20052;-79
2023/07/04 09:38:58;;;;;;;9.15;4.90;;;;;;;23.12;55.05;100607.41;4960631;28;20558;-80
2023/07/04 09:41:27;;;;;;;12.73;5.50;;;;;;;22.92;54.47;100601.69;4960215;28;20481;-79
2023/07/04 09:43:55;;;;;;;13.77;5.72;;;;;;;23.11;55.14;100597.78;4959390;28;20082;-80
2023/07/04 09:46:26;;;;;;;9.73;4.68;;;;;;;23.66;55.01;100599.81;4959192;29;20581;-80
2023/07/04 09:48:54;;;;;;;13.25;5.13;;;;;;;23.78;55.20;100585.31;4959055;29;20071;-79
2023/07/04 09:51:25;;;;;;;10.30;5.22;;;;;;;24.17;54.35;100586.13;4959307;29;20407;-79
2023/07/04 09:54:09;;;;;;;15.02;5.57;;;;;;;24.43;53.59;100590.00;4958575;28;20051;-78
2023/07/04 09:56:36;;;;;;;8.10;4.80;;;;;;;23.63;54.50;100594.97;4957267;29;20439;-78
2023/07/04 09:59:15;;;;;;;16.58;5.72;;;;;;;24.01;54.14;100595.03;4959065;28;20093;-79
2023/07/04 10:01:45;;;;;;;12.43;5.80;;;;;;;24.31;54.44;100591.16;4959809;29;20098;-79
2023/07/04 10:04:14;;;;;;;14.57;5.95;;;;;;;24.06;54.66;100600.44;4960036;28;20130;-80
2023/07/04 10:06:43;;;;;;;13.75;5.82;;;;;;;23.76;55.15;100589.28;4959138;28;20051;-80
2023/07/04 10:09:18;;;;;;;12.40;5.35;;;;;;;22.92;55.83;100578.47;4959787;29;20081;-80
2023/07/04 10:11:47;;;;;;;15.35;5.65;;;;;;;23.23;56.30;100597.72;4961965;29;20435;-79
2023/07/04 10:14:15;;;;;;;17.65;6.10;;;;;;;22.65;57.24;100594.22;4966919;28;20074;-79
2023/07/04 10:16:48;;;;;;;13.30;6.22;;;;;;;22.77;56.96;100581.63;4966277;29;20133;-80
2023/07/04 10:19:20;;;;;;;12.90;5.72;;;;;;;23.67;57.04;100590.72;4965318;29;20051;-79
2023/07/04 10:21:48;;;;;;;;;;;;;;;23.72;54.83;100566.78;4966014;28;20051;-80
2023/07/04 10:24:18;;;;;;;14.20;6.18;;;;;;;23.84;54.17;100564.81;4961579;28;20088;-79
2023/07/04 10:26:47;;;;;;;13.95;6.30;;;;;;;23.70;53.51;100560.88;4959700;29;20138;-80
2023/07/04 10:29:15;;;;;;;12.70;5.75;;;;;;;23.93;54.74;100563.38;4961676;29;20055;-80
2023/07/04 10:31:42;;;;;;;11.15;5.53;;;;;;;24.19;53.85;100577.88;4961274;28;20431;-79
2023/07/04 10:34:15;;;;;;;14.98;5.90;;;;;;;23.66;54.81;100570.41;4960855;29;20126;-80
2023/07/04 10:36:53;;;;;;;11.00;6.18;;;;;;;22.94;55.36;100580.91;4962098;28;20083;-80
2023/07/04 10:39:22;;;;;;;14.52;6.05;;;;;;;23.68;55.50;100581.66;4961790;28;20107;-80
2023/07/04 10:41:59;;;;;;;15.57;6.55;;;;;;;23.89;53.29;100556.88;4960958;28;20077;-79
2023/07/04 10:44:30;;;;;;;12.00;5.93;;;;;;;23.77;54.07;100565.00;4960274;28;20070;-80
2023/07/04 10:47:09;;;;;;;12.30;6.68;;;;;;;23.85;53.67;100561.09;4958932;29;20078;-79
2023/07/04 10:49:46;;;;;;;12.95;6.15;;;;;;;24.13;54.08;100558.28;4959756;28;20105;-80
2023/07/04 10:52:25;;;;;;;13.18;6.10;;;;;;;23.91;54.22;100570.81;4960578;29;20083;-80
2023/07/04 10:54:52;;;;;;;15.68;6.70;;;;;;;23.88;53.09;100560.63;4958917;28;20147;-80
2023/07/04 10:57:32;;;;;;;17.42;6.28;;;;;;;24.29;53.15;100562.00;4958544;29;20099;-79
2023/07/04 11:00:14;;;;;;;14.32;6.85;;;;;;;24.48;52.04;100557.16;4958191;29;20492;-79
2023/07/04 11:02:50;;;;;;;12.60;6.38;;;;;;;24.37;52.57;100569.59;4957584;28;20051;-77
2023/07/04 11:05:31;;;;;;;12.95;6.13;;;;;;;24.01;53.08;100559.47;4956170;29;20081;-78
2023/07/04 11:08:01;;;;;;;11.02;6.32;;;;;;;24.65;53.57;100592.66;4956381;29;20047;-79
2023/07/04 11:10:30;;;;;;;16.73;6.63;;;;;;;23.95;54.03;100576.47;4955989;29;20141;-79
2023/07/04 11:12:58;;;;;;;15.27;6.78;;;;;;;24.28;53.59;100578.28;4958441;29;20403;-79
2023/07/04 11:15:30;;;;;;;12.73;6.50;;;;;;;24.47;52.78;100569.72;4958422;29;20125;-78
2023/07/04 11:17:57;;;;;;;13.38;7.05;;;;;;;24.19;53.70;100577.06;4955455;28;20087;-78
2023/07/04 11:20:30;;;;;;;11.85;6.35;;;;;;;23.61;53.94;100560.50;4957051;28;20047;-78
2023/07/04 11:23:00;;;;;;;13.38;6.82;;;;;;;23.75;52.96;100560.94;4957818;28;20051;-77
2023/07/04 11:25:53;;;;;;;11.38;6.95;;;;;;;23.98;52.02;100555.41;4974146;28;20055;-79
2023/07/04 11:28:26;;;;;;;13.32;7.05;;;;;;;24.48;52.78;100559.84;4969779;29;20051;-77